Terminal Aerodrome Forecast
Issued by NWS Chicago, IL

Home | Current Version | Previous Version | Graphics & Text | Print | Product List | Glossary On
Versions: 1 2 3 4 5 6 7 8 9 10 11 12 13 14 15 16 17 18 19 20 21 22 23 24 25 26 27
267
FTUS43 KLOT 181132
TAFRFD
TAF
KRFD 181132Z 1812/1912 VRB03KT P6SM FEW050 SCT250
     FM181500 20008KT P6SM SCT050 BKN250
     FM190100 19005KT P6SM BKN120 PROB30 1904/1908 5SM -TSRA
      BKN050CB=

USA.gov is the U.S. government's official web portal to all federal, state and local government web resources and services.